createdAt,value
2022-10-26T00:01:08.531Z,89937.88
2022-10-26T00:03:37.008Z,89935.66
2022-10-26T00:06:12.517Z,89936.06
2022-10-26T00:08:39.440Z,89929.16
2022-10-26T00:11:07.295Z,89927.84
2022-10-26T00:13:34.599Z,89921.19
2022-10-26T00:16:01.476Z,89924.75
2022-10-26T00:18:28.394Z,89926.84
2022-10-26T00:20:55.109Z,89927.31
2022-10-26T00:23:21.944Z,89927.31
2022-10-26T00:25:56.785Z,89928.22
2022-10-26T00:28:23.805Z,89918.44
2022-10-26T00:30:50.879Z,89922.97
2022-10-26T00:33:18.039Z,89919.22
2022-10-26T00:35:48.375Z,89914.75
2022-10-26T00:38:15.486Z,89914.28
2022-10-26T00:40:42.285Z,89919.63
2022-10-26T00:43:27.121Z,89915.75
2022-10-26T00:45:56.793Z,89914.31
2022-10-26T00:48:31.204Z,89908.34
2022-10-26T00:51:03.094Z,89913.06
2022-10-26T00:53:30.737Z,89912.16
2022-10-26T00:55:58.325Z,89914.22
2022-10-26T00:58:26.253Z,89908.16
2022-10-26T01:00:53.523Z,89910.47
2022-10-26T01:03:20.839Z,89906.78
2022-10-26T01:05:49.683Z,89915.41
2022-10-26T01:08:17.400Z,89907.84
2022-10-26T01:10:44.845Z,89908.72
2022-10-26T01:13:13.319Z,89904.22
2022-10-26T01:16:18.338Z,89913.78
2022-10-26T01:19:13.493Z,89911.59
2022-10-26T01:22:02.023Z,89911.13
2022-10-26T01:24:28.699Z,89906.97
2022-10-26T01:27:19.880Z,89902.94
2022-10-26T01:30:01.178Z,89904.50
2022-10-26T01:32:38.875Z,89900.88
2022-10-26T01:35:14.115Z,89896.44
2022-10-26T01:37:48.183Z,89897.63
2022-10-26T01:40:25.367Z,89901.41
2022-10-26T01:42:55.430Z,89894.31
2022-10-26T01:45:22.433Z,89899.94
2022-10-26T01:47:50.230Z,89894.44
2022-10-26T01:50:19.862Z,89898.03
2022-10-26T01:52:50.579Z,89889.59
2022-10-26T01:55:38.948Z,89899.31
2022-10-26T01:58:35.163Z,89901.97
2022-10-26T02:01:16.670Z,89899.91
2022-10-26T02:03:50.010Z,89900.16
2022-10-26T02:06:42.182Z,89900.44
2022-10-26T02:09:16.931Z,89899.72
2022-10-26T02:11:47.125Z,89899.72
2022-10-26T02:14:49.873Z,89917.38
2022-10-26T02:17:34.859Z,89910.28
2022-10-26T02:20:08.660Z,89909.88
2022-10-26T02:22:39.183Z,89920.03
2022-10-26T02:25:11.902Z,89909.88
2022-10-26T02:27:45.467Z,89912.75
2022-10-26T02:30:13.517Z,89906.56
2022-10-26T02:32:45.625Z,89916.56
2022-10-26T02:35:14.572Z,89913.91
2022-10-26T02:37:42.688Z,89906.66
2022-10-26T02:40:14.353Z,89922.44
2022-10-26T02:42:45.484Z,89932.66
2022-10-26T02:45:18.113Z,89923.38
2022-10-26T02:47:45.163Z,89922.75
2022-10-26T02:50:12.164Z,89929.13
2022-10-26T02:53:00.763Z,89929.81
2022-10-26T02:55:50.217Z,89929.22
2022-10-26T02:58:26.245Z,89930.38
2022-10-26T03:00:54.226Z,89925.69
2022-10-26T03:03:22.000Z,89927.16
2022-10-26T03:05:48.765Z,89925.97
2022-10-26T03:08:15.660Z,89929.91
2022-10-26T03:10:44.472Z,89923.41
2022-10-26T03:13:13.815Z,89926.44
2022-10-26T03:15:40.714Z,89917.50
2022-10-26T03:18:07.659Z,89922.78
2022-10-26T03:20:34.518Z,89924.56
2022-10-26T03:23:01.237Z,89925.13
2022-10-26T03:25:28.003Z,89924.69
2022-10-26T03:28:02.571Z,89923.41
2022-10-26T03:30:30.951Z,89924.25
2022-10-26T03:32:58.056Z,89925.75
2022-10-26T03:35:24.882Z,89921.16
2022-10-26T03:37:52.009Z,89925.59
2022-10-26T03:40:19.105Z,89931.47
2022-10-26T03:42:46.036Z,89937.81
2022-10-26T03:45:12.867Z,89940.59
2022-10-26T03:47:46.770Z,89938.38
2022-10-26T03:50:15.653Z,89937.81
2022-10-26T03:52:42.974Z,89935.75
2022-10-26T03:55:10.630Z,89940.91
2022-10-26T03:57:42.164Z,89935.59
2022-10-26T04:00:14.357Z,89932.81
2022-10-26T04:02:42.081Z,89930.28
2022-10-26T04:05:09.546Z,89922.50
2022-10-26T04:07:36.271Z,89931.31
2022-10-26T04:10:03.191Z,89925.84
2022-10-26T04:12:29.921Z,89923.75
2022-10-26T04:14:56.836Z,89926.84
2022-10-26T04:17:25.389Z,89929.16
2022-10-26T04:19:52.113Z,89940.97
2022-10-26T04:22:19.019Z,89940.38
2022-10-26T04:24:45.743Z,89941.63
2022-10-26T04:27:12.585Z,89945.84
2022-10-26T04:29:39.325Z,89947.72
2022-10-26T04:32:06.034Z,89951.75
2022-10-26T04:34:33.033Z,89952.00
2022-10-26T04:36:59.823Z,89960.53
2022-10-26T04:39:26.519Z,89954.94
2022-10-26T04:41:54.694Z,89955.09
2022-10-26T04:44:21.472Z,89956.22
2022-10-26T04:46:48.150Z,89974.97
2022-10-26T04:49:14.875Z,89967.84
2022-10-26T04:51:41.708Z,89966.94
2022-10-26T04:54:08.510Z,89975.22
2022-10-26T04:56:35.352Z,89963.88
2022-10-26T04:59:02.213Z,89967.47
2022-10-26T05:01:29.010Z,89966.47
2022-10-26T05:03:55.724Z,89976.84
2022-10-26T05:06:22.628Z,89980.91
2022-10-26T05:08:49.614Z,89984.56
2022-10-26T05:11:16.608Z,89987.72
2022-10-26T05:13:43.352Z,89991.94
2022-10-26T05:16:10.130Z,89990.06
2022-10-26T05:18:36.834Z,89997.75
2022-10-26T05:21:03.913Z,89985.50
2022-10-26T05:23:30.696Z,89988.31
2022-10-26T05:25:57.434Z,89988.31
2022-10-26T05:28:24.464Z,89992.44
2022-10-26T05:30:51.323Z,89997.03
2022-10-26T05:33:17.989Z,89999.81
2022-10-26T05:35:44.763Z,90006.00
2022-10-26T05:38:16.959Z,90006.03
2022-10-26T05:40:47.994Z,90009.75
2022-10-26T05:43:14.726Z,90010.88
2022-10-26T05:45:41.404Z,90012.00
2022-10-26T05:48:08.234Z,90008.81
2022-10-26T05:50:35.060Z,90013.22
2022-10-26T05:53:01.935Z,90019.47
2022-10-26T05:55:29.105Z,90016.06
2022-10-26T05:57:56.071Z,90024.06
2022-10-26T06:00:27.770Z,90022.66
2022-10-26T06:06:01.654Z,90016.06
2022-10-26T06:08:31.088Z,90009.81
2022-10-26T06:10:58.657Z,90006.44
2022-10-26T06:13:25.861Z,90010.66
2022-10-26T06:16:18.384Z,90014.84
2022-10-26T06:19:14.887Z,90014.03
2022-10-26T06:21:57.038Z,90012.41
2022-10-26T06:24:41.237Z,90023.88
2022-10-26T06:27:39.040Z,90014.63
2022-10-26T06:30:08.148Z,90019.06
2022-10-26T06:32:34.920Z,90003.31
2022-10-26T06:35:21.908Z,90013.97
2022-10-26T06:37:50.248Z,90009.88
2022-10-26T06:40:18.493Z,90006.75
2022-10-26T06:42:45.604Z,90007.91
2022-10-26T06:48:20.200Z,90003.44
2022-10-26T06:50:51.922Z,90005.78
2022-10-26T06:56:07.124Z,89999.13
2022-10-26T06:58:36.436Z,89998.75
2022-10-26T07:01:03.895Z,90000.06
2022-10-26T07:03:30.718Z,90004.59
2022-10-26T07:05:57.557Z,90011.56
2022-10-26T07:08:24.502Z,90001.28
2022-10-26T07:10:51.295Z,90000.50
2022-10-26T07:13:18.973Z,89995.69
2022-10-26T07:15:45.760Z,89993.19
2022-10-26T07:18:12.520Z,89992.16
2022-10-26T07:20:40.994Z,89992.59
2022-10-26T07:23:09.650Z,89998.75
2022-10-26T07:25:36.599Z,89990.19
2022-10-26T07:28:03.402Z,89995.16
2022-10-26T07:30:31.090Z,89985.94
2022-10-26T07:33:06.588Z,89996.56
2022-10-26T07:35:34.319Z,89990.91
2022-10-26T07:38:01.682Z,89985.88
2022-10-26T07:40:28.772Z,89986.84
2022-10-26T07:43:00.279Z,89990.59
2022-10-26T07:45:28.606Z,89989.31
2022-10-26T07:47:55.906Z,89994.13
2022-10-26T07:50:23.162Z,89989.94
2022-10-26T07:52:50.792Z,89990.47
2022-10-26T07:55:17.936Z,89982.88
2022-10-26T07:57:44.975Z,89991.59
2022-10-26T08:00:12.871Z,89987.53
2022-10-26T08:02:39.667Z,89987.16
2022-10-26T08:05:06.960Z,89987.25
2022-10-26T08:07:33.779Z,89989.28
2022-10-26T08:10:00.489Z,89982.50
2022-10-26T08:12:27.339Z,89984.50
2022-10-26T08:14:54.133Z,89978.50
2022-10-26T08:17:21.001Z,89980.25
2022-10-26T08:19:48.426Z,89984.66
2022-10-26T08:24:47.000Z,89975.09
2022-10-26T08:27:14.896Z,89972.19
2022-10-26T08:29:42.013Z,89968.53
2022-10-26T08:32:08.936Z,89968.31
2022-10-26T08:34:35.779Z,89976.56
2022-10-26T08:37:02.544Z,89977.31
2022-10-26T08:39:29.335Z,89974.81
2022-10-26T08:42:10.744Z,89979.22
2022-10-26T08:44:41.550Z,89980.06
2022-10-26T08:47:31.203Z,89969.63
2022-10-26T08:50:10.535Z,89969.56
2022-10-26T08:52:53.423Z,89974.69
2022-10-26T08:55:26.420Z,89966.22
2022-10-26T08:57:54.040Z,89973.06
2022-10-26T09:00:22.985Z,89974.50
2022-10-26T09:02:54.128Z,89972.19
2022-10-26T09:05:36.771Z,89960.09
2022-10-26T09:08:18.265Z,89954.69
2022-10-26T09:10:51.015Z,89951.84
2022-10-26T09:13:50.124Z,89957.25
2022-10-26T09:16:50.769Z,89952.50
2022-10-26T09:19:17.519Z,89952.50
2022-10-26T09:22:04.762Z,89946.25
2022-10-26T09:24:33.756Z,89946.00
2022-10-26T09:27:17.507Z,89953.41
2022-10-26T09:29:44.674Z,89951.50
2022-10-26T09:32:19.012Z,89955.34
2022-10-26T09:34:52.513Z,89952.31
2022-10-26T09:37:25.642Z,89945.56
2022-10-26T09:40:02.973Z,89954.94
2022-10-26T09:42:45.149Z,89944.66
2022-10-26T09:45:18.390Z,89942.53
2022-10-26T09:47:51.302Z,89945.72
2022-10-26T09:50:25.570Z,89934.22
2022-10-26T09:52:52.631Z,89926.06
2022-10-26T09:55:19.673Z,89930.59
2022-10-26T09:57:48.864Z,89930.31
2022-10-26T10:00:18.050Z,89936.41
2022-10-26T10:02:49.828Z,89930.72
2022-10-26T10:05:51.707Z,89927.16
2022-10-26T10:08:27.350Z,89930.75
2022-10-26T10:11:05.439Z,89928.38
2022-10-26T10:13:35.374Z,89926.56
2022-10-26T10:16:21.108Z,89921.81
2022-10-26T10:18:56.798Z,89923.53
2022-10-26T10:21:34.317Z,89911.22
2022-10-26T10:24:01.217Z,89906.88
2022-10-26T10:26:27.986Z,89915.25
2022-10-26T10:28:59.768Z,89910.78
2022-10-26T10:31:34.175Z,89913.44
2022-10-26T10:34:01.002Z,89923.84
2022-10-26T10:36:30.168Z,89916.34
2022-10-26T10:38:57.247Z,89917.94
2022-10-26T10:41:33.985Z,89912.72
2022-10-26T10:44:07.569Z,89912.84
2022-10-26T10:46:35.210Z,89915.41
2022-10-26T10:49:05.337Z,89915.75
2022-10-26T10:51:38.712Z,89916.47
2022-10-26T10:54:07.507Z,89917.44
2022-10-26T10:56:52.157Z,89907.03
2022-10-26T10:59:39.836Z,89908.00
2022-10-26T11:02:06.855Z,89913.88
2022-10-26T11:04:39.626Z,89914.50
2022-10-26T11:07:08.250Z,89915.44
2022-10-26T11:09:38.919Z,89909.16
2022-10-26T11:12:28.720Z,89914.00
2022-10-26T11:15:12.913Z,89913.09
2022-10-26T11:18:02.563Z,89914.94
2022-10-26T11:20:31.436Z,89911.91
2022-10-26T11:23:01.322Z,89910.97
2022-10-26T11:25:46.746Z,89899.13
2022-10-26T11:28:20.138Z,89912.84
2022-10-26T11:30:55.092Z,89897.94
2022-10-26T11:33:29.580Z,89904.91
2022-10-26T11:36:23.021Z,89906.28
2022-10-26T11:39:03.932Z,89899.66
2022-10-26T11:42:17.842Z,89906.94
2022-10-26T11:44:53.116Z,89909.41
2022-10-26T11:47:37.533Z,89897.97
2022-10-26T11:50:34.732Z,89899.03
2022-10-26T11:53:19.404Z,89907.38
2022-10-26T11:55:56.563Z,89909.75
2022-10-26T11:58:28.546Z,89913.25
2022-10-26T12:01:01.917Z,89900.25
2022-10-26T12:03:34.789Z,89903.03
2022-10-26T12:06:01.736Z,89900.88
2022-10-26T12:08:42.619Z,89915.69
2022-10-26T12:11:34.872Z,89917.47
2022-10-26T12:14:26.582Z,89916.78
2022-10-26T12:17:15.138Z,89911.59
2022-10-26T12:19:56.215Z,89910.38
2022-10-26T12:22:29.521Z,89910.94
2022-10-26T12:25:29.865Z,89915.63
2022-10-26T12:27:57.553Z,89913.28
2022-10-26T12:30:33.781Z,89918.50
2022-10-26T12:33:03.269Z,89912.25
2022-10-26T12:35:41.789Z,89906.19
2022-10-26T12:38:47.034Z,89911.84
2022-10-26T12:41:23.910Z,89912.69
2022-10-26T12:43:50.871Z,89911.91
2022-10-26T12:46:17.567Z,89918.44
2022-10-26T12:48:48.436Z,89923.38
2022-10-26T12:51:21.118Z,89923.28
2022-10-26T12:53:50.628Z,89921.72
2022-10-26T12:56:24.684Z,89929.34
2022-10-26T12:59:20.789Z,89929.34
2022-10-26T13:02:08.814Z,89926.38
2022-10-26T13:04:42.090Z,89928.41
2022-10-26T13:07:19.168Z,89930.84
2022-10-26T13:10:02.137Z,89932.34
2022-10-26T13:12:38.622Z,89933.63
2022-10-26T13:15:18.225Z,89934.88
2022-10-26T13:17:58.414Z,89936.56
2022-10-26T13:20:25.501Z,89938.53
2022-10-26T13:22:52.788Z,89941.06
2022-10-26T13:25:26.797Z,89944.31
2022-10-26T13:28:33.847Z,89936.53
2022-10-26T13:31:00.688Z,89943.38
2022-10-26T13:33:37.899Z,89944.09
2022-10-26T13:36:32.034Z,89938.53
2022-10-26T13:39:04.416Z,89947.63
2022-10-26T13:41:38.245Z,89942.50
2022-10-26T13:44:08.669Z,89952.31
2022-10-26T13:46:39.249Z,89952.84
2022-10-26T13:49:27.989Z,89951.16
2022-10-26T13:51:55.384Z,89950.97
2022-10-26T13:54:42.570Z,89948.28
2022-10-26T13:57:36.481Z,89950.72
2022-10-26T14:00:16.176Z,89959.06
2022-10-26T14:02:43.490Z,89960.53
2022-10-26T14:05:12.510Z,89959.97
2022-10-26T14:07:49.462Z,89953.84
2022-10-26T14:10:40.601Z,89953.94
2022-10-26T14:13:09.310Z,89960.25
2022-10-26T14:15:36.897Z,89955.63
2022-10-26T14:18:04.779Z,89946.81
2022-10-26T14:20:32.445Z,89955.59
2022-10-26T14:22:59.237Z,89952.31
2022-10-26T14:25:41.746Z,89949.41
2022-10-26T14:28:31.395Z,89954.56
2022-10-26T14:31:21.234Z,89953.16
2022-10-26T14:33:48.058Z,89952.47
2022-10-26T14:36:16.388Z,89953.00
2022-10-26T14:41:16.052Z,89965.22
2022-10-26T14:43:45.226Z,89970.13
2022-10-26T14:46:16.301Z,89961.09
2022-10-26T14:48:55.720Z,89975.81
2022-10-26T14:51:27.692Z,89967.25
2022-10-26T14:53:59.649Z,89976.31
2022-10-26T14:56:28.894Z,89967.81
2022-10-26T14:58:56.814Z,89975.16
2022-10-26T15:01:23.649Z,89978.81
2022-10-26T15:03:55.837Z,89981.56
2022-10-26T15:06:28.739Z,89978.41
2022-10-26T15:08:59.862Z,89977.72
2022-10-26T15:11:28.363Z,89988.97
2022-10-26T15:13:56.622Z,89983.38
2022-10-26T15:16:29.689Z,89979.47
2022-10-26T15:19:08.116Z,89994.84
2022-10-26T15:21:40.168Z,89987.53
2022-10-26T15:24:28.197Z,89991.94
2022-10-26T15:26:55.593Z,89999.97
2022-10-26T15:29:34.137Z,90002.19
2022-10-26T15:32:02.132Z,90006.81
2022-10-26T15:34:29.025Z,90000.25
2022-10-26T15:36:56.682Z,90001.47
2022-10-26T15:39:27.793Z,90017.09
2022-10-26T15:41:54.761Z,90006.59
2022-10-26T15:44:22.555Z,90010.25
2022-10-26T15:46:50.002Z,90022.94
2022-10-26T15:49:21.466Z,90014.16
2022-10-26T15:51:49.119Z,90018.56
2022-10-26T15:54:16.395Z,90026.41
2022-10-26T15:56:43.678Z,90029.31
2022-10-26T15:59:18.558Z,90022.72
2022-10-26T16:01:45.659Z,90034.19
2022-10-26T16:04:12.549Z,90027.13
2022-10-26T16:06:41.103Z,90027.84
2022-10-26T16:09:19.990Z,90034.44
2022-10-26T16:11:46.747Z,90041.75
2022-10-26T16:14:13.641Z,90030.28
2022-10-26T16:16:40.923Z,90037.84
2022-10-26T16:19:30.291Z,90041.53
2022-10-26T16:21:57.063Z,90035.88
2022-10-26T16:24:24.108Z,90041.75
2022-10-26T16:26:50.951Z,90047.84
2022-10-26T16:29:17.796Z,90051.75
2022-10-26T16:31:44.590Z,90053.97
2022-10-26T16:34:11.405Z,90063.75
2022-10-26T16:36:38.231Z,90053.00
2022-10-26T16:50:00.949Z,90074.00
2022-10-26T16:52:27.800Z,90076.91
2022-10-26T16:54:54.712Z,90075.94
2022-10-26T16:57:21.869Z,90075.19
2022-10-26T16:59:48.707Z,90077.88
2022-10-26T17:02:15.802Z,90072.03
2022-10-26T17:04:42.795Z,90076.66
2022-10-26T17:07:11.172Z,90081.06
2022-10-26T17:09:38.440Z,90073.50
2022-10-26T17:12:06.744Z,90076.66
2022-10-26T17:14:33.632Z,90087.19
2022-10-26T17:17:00.520Z,90084.75
2022-10-26T17:19:27.315Z,90078.59
2022-10-26T17:21:54.188Z,90082.28
2022-10-26T17:24:21.147Z,90074.44
2022-10-26T17:26:47.985Z,90080.06
2022-10-26T17:29:14.921Z,90080.78
2022-10-26T17:31:41.884Z,90084.47
2022-10-26T17:34:08.716Z,90072.75
2022-10-26T17:36:35.650Z,90076.66
2022-10-26T17:39:02.684Z,90088.34
2022-10-26T17:41:29.612Z,90085.16
2022-10-26T17:43:56.400Z,90082.19
2022-10-26T17:46:25.379Z,90080.97
2022-10-26T17:48:57.571Z,90081.19
2022-10-26T17:51:26.183Z,90081.94
2022-10-26T17:53:54.112Z,90081.88
2022-10-26T17:56:22.483Z,90088.22
2022-10-26T17:58:53.513Z,90093.31
2022-10-26T18:01:20.662Z,90093.25
2022-10-26T18:03:47.599Z,90086.19
2022-10-26T18:06:14.829Z,90096.16
2022-10-26T18:08:41.627Z,90097.63
2022-10-26T18:11:14.095Z,90100.44
2022-10-26T18:13:42.599Z,90100.13
2022-10-26T18:16:11.753Z,90097.94
2022-10-26T18:18:40.138Z,90099.34
2022-10-26T18:21:12.722Z,90108.38
2022-10-26T18:23:39.679Z,90106.00
2022-10-26T18:26:13.084Z,90113.91
2022-10-26T18:28:41.061Z,90103.97
2022-10-26T18:31:11.469Z,90118.59
2022-10-26T18:33:39.000Z,90109.81
2022-10-26T18:36:11.780Z,90120.97
2022-10-26T18:38:39.567Z,90118.53
2022-10-26T18:41:07.609Z,90119.94
2022-10-26T18:43:34.510Z,90127.47
2022-10-26T18:46:15.105Z,90135.75
2022-10-26T18:48:44.672Z,90136.25
2022-10-26T18:51:14.424Z,90139.28
2022-10-26T18:53:42.355Z,90137.84
2022-10-26T18:56:12.145Z,90138.84
2022-10-26T18:58:41.212Z,90152.91
2022-10-26T19:01:25.658Z,90149.66
2022-10-26T19:04:03.929Z,90155.94
2022-10-26T19:06:33.326Z,90148.09
2022-10-26T19:09:00.909Z,90147.53
2022-10-26T19:11:29.471Z,90150.16
2022-10-26T19:13:56.932Z,90161.19
2022-10-26T19:19:17.395Z,90171.47
2022-10-26T19:21:45.993Z,90179.47
2022-10-26T19:24:18.914Z,90171.75
2022-10-26T19:26:46.379Z,90173.69
2022-10-26T19:29:15.564Z,90180.72
2022-10-26T19:31:44.173Z,90179.91
2022-10-26T19:34:12.560Z,90176.72
2022-10-26T19:36:39.359Z,90179.25
2022-10-26T19:39:06.310Z,90181.44
2022-10-26T19:41:33.099Z,90179.78
2022-10-26T19:46:31.509Z,90181.09
2022-10-26T19:49:02.295Z,90181.09
2022-10-26T19:51:31.146Z,90185.94
2022-10-26T19:54:02.141Z,90189.59
2022-10-26T19:56:30.752Z,90182.97
2022-10-26T19:58:57.533Z,90185.94
2022-10-26T20:01:24.381Z,90180.91
2022-10-26T20:03:51.749Z,90179.25
2022-10-26T20:06:18.619Z,90185.59
2022-10-26T20:08:47.824Z,90182.78
2022-10-26T20:11:15.938Z,90185.25
2022-10-26T20:13:44.677Z,90185.38
2022-10-26T20:16:12.238Z,90182.88
2022-10-26T20:18:42.536Z,90189.63
2022-10-26T20:21:13.554Z,90185.00
2022-10-26T20:23:41.359Z,90192.75
2022-10-26T20:26:08.561Z,90197.88
2022-10-26T20:28:35.390Z,90191.06
2022-10-26T20:31:02.247Z,90195.34
2022-10-26T20:33:31.457Z,90195.81
2022-10-26T20:35:59.354Z,90196.03
2022-10-26T20:38:27.105Z,90204.09
2022-10-26T20:40:56.157Z,90207.06
2022-10-26T20:43:24.152Z,90202.69
2022-10-26T20:45:51.877Z,90201.53
2022-10-26T20:48:19.368Z,90197.91
2022-10-26T20:50:53.848Z,90201.50
2022-10-26T20:53:44.236Z,90201.97
2022-10-26T20:56:22.384Z,90194.94
2022-10-26T20:58:56.004Z,90189.94
2022-10-26T21:01:33.520Z,90195.13
2022-10-26T21:04:02.901Z,90193.94
2022-10-26T21:06:30.500Z,90199.72
2022-10-26T21:08:57.636Z,90197.00
2022-10-26T21:11:25.558Z,90195.13
2022-10-26T21:13:53.966Z,90204.06
2022-10-26T21:18:53.551Z,90201.16
2022-10-26T21:21:20.701Z,90197.66
2022-10-26T21:23:47.541Z,90200.34
2022-10-26T21:26:14.366Z,90208.56
2022-10-26T21:28:43.099Z,90205.13
2022-10-26T21:31:11.875Z,90210.88
2022-10-26T21:33:39.443Z,90203.66
2022-10-26T21:36:09.310Z,90203.81
2022-10-26T21:38:36.174Z,90204.97
2022-10-26T21:41:07.863Z,90199.44
2022-10-26T21:43:36.031Z,90205.63
2022-10-26T21:46:03.905Z,90197.78
2022-10-26T21:48:32.217Z,90197.34
2022-10-26T21:51:01.892Z,90194.84
2022-10-26T21:53:29.231Z,90195.59
2022-10-26T21:56:03.908Z,90193.13
2022-10-26T21:58:30.985Z,90195.88
2022-10-26T22:01:06.069Z,90203.19
2022-10-26T22:03:33.474Z,90209.47
2022-10-26T22:06:00.966Z,90200.44
2022-10-26T22:08:28.238Z,90201.63
2022-10-26T22:10:55.576Z,90207.59
2022-10-26T22:13:22.944Z,90209.22
2022-10-26T22:16:00.214Z,90216.75
2022-10-26T22:18:27.101Z,90212.91
2022-10-26T22:21:00.427Z,90211.09
2022-10-26T22:23:27.251Z,90205.59
2022-10-26T22:25:54.188Z,90212.00
2022-10-26T22:28:21.011Z,90208.34
2022-10-26T22:30:47.843Z,90214.59
2022-10-26T22:33:14.650Z,90210.00
2022-10-26T22:35:41.491Z,90206.31
2022-10-26T22:38:08.339Z,90207.03
2022-10-26T22:40:35.163Z,90213.88
2022-10-26T22:43:02.033Z,90212.56
2022-10-26T22:45:28.787Z,90217.59
2022-10-26T22:47:55.587Z,90218.22
2022-10-26T22:50:22.482Z,90212.81
2022-10-26T22:52:49.490Z,90217.72
2022-10-26T22:55:16.526Z,90207.22
2022-10-26T22:57:45.660Z,90208.97
2022-10-26T23:00:13.560Z,90208.53
2022-10-26T23:02:40.404Z,90216.03
2022-10-26T23:05:07.945Z,90208.84
2022-10-26T23:07:34.707Z,90204.09
2022-10-26T23:10:01.450Z,90209.97
2022-10-26T23:12:28.293Z,90205.22
2022-10-26T23:14:55.043Z,90206.31
2022-10-26T23:17:21.845Z,90207.78
2022-10-26T23:19:48.774Z,90212.03
2022-10-26T23:22:15.564Z,90203.94
2022-10-26T23:24:42.363Z,90215.34
2022-10-26T23:27:09.139Z,90213.31
2022-10-26T23:29:35.998Z,90206.38
2022-10-26T23:32:02.885Z,90213.47
2022-10-26T23:34:29.795Z,90223.56
2022-10-26T23:36:56.534Z,90223.00
2022-10-26T23:39:23.415Z,90208.00
2022-10-26T23:41:50.229Z,90227.63
2022-10-26T23:44:16.994Z,90223.22
2022-10-26T23:46:43.775Z,90222.66
2022-10-26T23:49:10.515Z,90221.66
2022-10-26T23:51:37.251Z,90214.75
2022-10-26T23:54:04.146Z,90216.97
2022-10-26T23:56:31.013Z,90220.91
2022-10-26T23:58:57.774Z,90227.63
